sensor_id;sensor_type;location;lat;lon;timestamp;pressure;altitude;pressure_sealevel;temperature;humidity
36062;BME280;22123;52.412;20.970;2023-03-26T00:01:14;99415.41;;;6.04;100.00
36062;BME280;22123;52.412;20.970;2023-03-26T00:03:41;99416.06;;;6.06;100.00
36062;BME280;22123;52.412;20.970;2023-03-26T00:06:11;99407.22;;;6.06;100.00
36062;BME280;22123;52.412;20.970;2023-03-26T00:08:37;99410.06;;;6.04;100.00
36062;BME280;22123;52.412;20.970;2023-03-26T00:11:04;99414.72;;;6.02;100.00
36062;BME280;22123;52.412;20.970;2023-03-26T00:13:30;99409.72;;;5.99;100.00
36062;BME280;22123;52.412;20.970;2023-03-26T00:15:56;99407.53;;;5.95;100.00
36062;BME280;22123;52.412;20.970;2023-03-26T00:18:22;99405.53;;;5.88;100.00
36062;BME280;22123;52.412;20.970;2023-03-26T00:20:48;99401.53;;;5.84;100.00
36062;BME280;22123;52.412;20.970;2023-03-26T00:23:13;99396.19;;;5.76;100.00
36062;BME280;22123;52.412;20.970;2023-03-26T00:25:39;99389.66;;;5.70;100.00
36062;BME280;22123;52.412;20.970;2023-03-26T00:28:05;99397.69;;;5.70;100.00
36062;BME280;22123;52.412;20.970;2023-03-26T00:30:31;99390.69;;;5.69;100.00
36062;BME280;22123;52.412;20.970;2023-03-26T00:32:57;99303.56;;;5.11;100.00
36062;BME280;22123;52.412;20.970;2023-03-26T00:35:22;99389.69;;;5.62;100.00
36062;BME280;22123;52.412;20.970;2023-03-26T00:37:48;99387.84;;;5.63;100.00
36062;BME280;22123;52.412;20.970;2023-03-26T00:40:14;99386.00;;;5.63;100.00
36062;BME280;22123;52.412;20.970;2023-03-26T00:42:39;99378.50;;;5.67;100.00
36062;BME280;22123;52.412;20.970;2023-03-26T00:45:05;99378.50;;;5.67;100.00
36062;BME280;22123;52.412;20.970;2023-03-26T00:47:31;99375.00;;;5.66;100.00
36062;BME280;22123;52.412;20.970;2023-03-26T00:49:57;99372.34;;;5.66;100.00
36062;BME280;22123;52.412;20.970;2023-03-26T00:52:23;99375.31;;;5.71;100.00
36062;BME280;22123;52.412;20.970;2023-03-26T00:54:51;99375.97;;;5.73;100.00
36062;BME280;22123;52.412;20.970;2023-03-26T00:57:17;99375.16;;;5.73;100.00
36062;BME280;22123;52.412;20.970;2023-03-26T00:59:43;99376.50;;;5.69;100.00
36062;BME280;22123;52.412;20.970;2023-03-26T01:02:10;99375.84;;;5.67;100.00
36062;BME280;22123;52.412;20.970;2023-03-26T01:04:36;99370.31;;;5.68;100.00
36062;BME280;22123;52.412;20.970;2023-03-26T01:07:09;99375.16;;;5.65;100.00
36062;BME280;22123;52.412;20.970;2023-03-26T01:09:39;99373.66;;;5.62;100.00
36062;BME280;22123;52.412;20.970;2023-03-26T01:12:06;99375.66;;;5.60;100.00
36062;BME280;22123;52.412;20.970;2023-03-26T01:14:32;99376.00;;;5.57;100.00
36062;BME280;22123;52.412;20.970;2023-03-26T01:16:59;99370.81;;;5.55;100.00
36062;BME280;22123;52.412;20.970;2023-03-26T01:22:04;99366.81;;;5.51;100.00
36062;BME280;22123;52.412;20.970;2023-03-26T01:24:30;99368.13;;;5.47;100.00
36062;BME280;22123;52.412;20.970;2023-03-26T01:29:25;99370.50;;;5.42;100.00
36062;BME280;22123;52.412;20.970;2023-03-26T01:39:27;99363.28;;;5.34;100.00
36062;BME280;22123;52.412;20.970;2023-03-26T01:41:57;99356.31;;;5.33;100.00
36062;BME280;22123;52.412;20.970;2023-03-26T01:44:40;99360.97;;;5.31;100.00
36062;BME280;22123;52.412;20.970;2023-03-26T01:47:10;99353.13;;;5.30;100.00
36062;BME280;22123;52.412;20.970;2023-03-26T01:49:36;99352.28;;;5.29;100.00
36062;BME280;22123;52.412;20.970;2023-03-26T01:52:04;99341.44;;;5.31;100.00
36062;BME280;22123;52.412;20.970;2023-03-26T01:54:30;99342.78;;;5.35;100.00
36062;BME280;22123;52.412;20.970;2023-03-26T01:59:26;99329.75;;;5.40;100.00
36062;BME280;22123;52.412;20.970;2023-03-26T02:02:03;99341.63;;;5.46;100.00
36062;BME280;22123;52.412;20.970;2023-03-26T02:04:45;99336.97;;;5.48;100.00
36062;BME280;22123;52.412;20.970;2023-03-26T02:07:18;99336.47;;;5.52;100.00
36062;BME280;22123;52.412;20.970;2023-03-26T02:09:46;99332.63;;;5.55;100.00
36062;BME280;22123;52.412;20.970;2023-03-26T02:12:13;99334.28;;;5.56;100.00
36062;BME280;22123;52.412;20.970;2023-03-26T02:14:39;99325.09;;;5.58;100.00
36062;BME280;22123;52.412;20.970;2023-03-26T02:17:05;99324.94;;;5.60;100.00
36062;BME280;22123;52.412;20.970;2023-03-26T02:19:31;99328.63;;;5.59;100.00
36062;BME280;22123;52.412;20.970;2023-03-26T02:21:56;99320.44;;;5.61;100.00
36062;BME280;22123;52.412;20.970;2023-03-26T02:24:22;99316.75;;;5.62;100.00
36062;BME280;22123;52.412;20.970;2023-03-26T02:26:48;99316.91;;;5.60;100.00
36062;BME280;22123;52.412;20.970;2023-03-26T02:29:13;99308.91;;;5.60;100.00
36062;BME280;22123;52.412;20.970;2023-03-26T02:31:39;99304.41;;;5.61;100.00
36062;BME280;22123;52.412;20.970;2023-03-26T02:34:05;99310.25;;;5.56;100.00
36062;BME280;22123;52.412;20.970;2023-03-26T02:36:30;99317.94;;;5.51;100.00
36062;BME280;22123;52.412;20.970;2023-03-26T02:38:56;99306.09;;;5.45;100.00
36062;BME280;22123;52.412;20.970;2023-03-26T02:41:22;99312.94;;;5.39;100.00
36062;BME280;22123;52.412;20.970;2023-03-26T02:43:47;99305.44;;;5.35;100.00
36062;BME280;22123;52.412;20.970;2023-03-26T02:46:13;99315.59;;;5.31;100.00
36062;BME280;22123;52.412;20.970;2023-03-26T02:48:39;99321.25;;;5.28;100.00
36062;BME280;22123;52.412;20.970;2023-03-26T02:51:04;99313.75;;;5.23;100.00
36062;BME280;22123;52.412;20.970;2023-03-26T02:53:30;99317.25;;;5.24;100.00
36062;BME280;22123;52.412;20.970;2023-03-26T02:55:56;99313.09;;;5.21;100.00
36062;BME280;22123;52.412;20.970;2023-03-26T02:58:22;99317.75;;;5.19;100.00
36062;BME280;22123;52.412;20.970;2023-03-26T03:00:47;99314.09;;;5.20;100.00
36062;BME280;22123;52.412;20.970;2023-03-26T03:03:13;99309.09;;;5.17;100.00
36062;BME280;22123;52.412;20.970;2023-03-26T03:05:39;99306.09;;;5.20;100.00
36062;BME280;22123;52.412;20.970;2023-03-26T03:08:04;99313.59;;;5.25;100.00
36062;BME280;22123;52.412;20.970;2023-03-26T03:10:30;99313.25;;;5.28;100.00
36062;BME280;22123;52.412;20.970;2023-03-26T03:12:56;99312.44;;;5.36;100.00
36062;BME280;22123;52.412;20.970;2023-03-26T03:15:21;99317.28;;;5.40;100.00
36062;BME280;22123;52.412;20.970;2023-03-26T03:17:47;99313.75;;;5.48;100.00
36062;BME280;22123;52.412;20.970;2023-03-26T03:20:13;99315.09;;;5.52;100.00
36062;BME280;22123;52.412;20.970;2023-03-26T03:22:38;99312.09;;;5.55;100.00
36062;BME280;22123;52.412;20.970;2023-03-26T03:25:04;99323.28;;;5.59;100.00
36062;BME280;22123;52.412;20.970;2023-03-26T03:27:30;99322.94;;;5.62;100.00
36062;BME280;22123;52.412;20.970;2023-03-26T03:29:55;99321.59;;;5.66;100.00
36062;BME280;22123;52.412;20.970;2023-03-26T03:32:21;99315.94;;;5.69;100.00
36062;BME280;22123;52.412;20.970;2023-03-26T03:34:47;99319.41;;;5.70;100.00
36062;BME280;22123;52.412;20.970;2023-03-26T03:37:13;99317.91;;;5.67;100.00
36062;BME280;22123;52.412;20.970;2023-03-26T03:39:39;99319.75;;;5.67;100.00
36062;BME280;22123;52.412;20.970;2023-03-26T03:42:04;99315.25;;;5.67;100.00
36062;BME280;22123;52.412;20.970;2023-03-26T03:44:30;99317.56;;;5.70;100.00
36062;BME280;22123;52.412;20.970;2023-03-26T03:46:55;99318.25;;;5.72;100.00
36062;BME280;22123;52.412;20.970;2023-03-26T03:49:21;99324.59;;;5.71;100.00
36062;BME280;22123;52.412;20.970;2023-03-26T03:51:47;99319.06;;;5.73;100.00
36062;BME280;22123;52.412;20.970;2023-03-26T03:54:12;99317.09;;;5.75;100.00
36062;BME280;22123;52.412;20.970;2023-03-26T03:56:38;99308.06;;;5.76;100.00
36062;BME280;22123;52.412;20.970;2023-03-26T03:59:04;99312.41;;;5.77;100.00
36062;BME280;22123;52.412;20.970;2023-03-26T04:01:29;99312.22;;;5.79;100.00
36062;BME280;22123;52.412;20.970;2023-03-26T04:03:56;99318.22;;;5.81;100.00
36062;BME280;22123;52.412;20.970;2023-03-26T04:06:21;99318.22;;;5.81;100.00
36062;BME280;22123;52.412;20.970;2023-03-26T04:08:47;99320.75;;;5.82;100.00
36062;BME280;22123;52.412;20.970;2023-03-26T04:11:13;99324.72;;;5.86;100.00
36062;BME280;22123;52.412;20.970;2023-03-26T04:13:38;99321.88;;;5.88;100.00
36062;BME280;22123;52.412;20.970;2023-03-26T04:16:04;99315.19;;;5.92;100.00
36062;BME280;22123;52.412;20.970;2023-03-26T04:18:30;99306.84;;;5.95;100.00
36062;BME280;22123;52.412;20.970;2023-03-26T04:20:55;99304.00;;;5.97;100.00
36062;BME280;22123;52.412;20.970;2023-03-26T04:23:21;99311.91;;;5.98;100.00
36062;BME280;22123;52.412;20.970;2023-03-26T04:25:48;99300.38;;;5.98;100.00
36062;BME280;22123;52.412;20.970;2023-03-26T04:28:16;99303.53;;;6.01;100.00
36062;BME280;22123;52.412;20.970;2023-03-26T04:30:46;99298.03;;;6.03;100.00
36062;BME280;22123;52.412;20.970;2023-03-26T04:33:12;99300.88;;;6.01;100.00
36062;BME280;22123;52.412;20.970;2023-03-26T04:35:37;99300.88;;;6.01;100.00
36062;BME280;22123;52.412;20.970;2023-03-26T04:38:03;99296.34;;;6.02;100.00
36062;BME280;22123;52.412;20.970;2023-03-26T04:40:29;99292.34;;;6.06;100.00
36062;BME280;22123;52.412;20.970;2023-03-26T04:42:55;99288.00;;;6.05;100.00
36062;BME280;22123;52.412;20.970;2023-03-26T04:45:20;99288.84;;;6.05;100.00
36062;BME280;22123;52.412;20.970;2023-03-26T04:47:46;99294.19;;;6.05;100.00
36062;BME280;22123;52.412;20.970;2023-03-26T04:50:12;99297.34;;;6.09;100.00
36062;BME280;22123;52.412;20.970;2023-03-26T04:52:37;99302.31;;;6.12;100.00
36062;BME280;22123;52.412;20.970;2023-03-26T04:55:04;99302.16;;;6.14;100.00
36062;BME280;22123;52.412;20.970;2023-03-26T04:57:36;99232.44;;;5.75;100.00
36062;BME280;22123;52.412;20.970;2023-03-26T05:00:04;99305.16;;;6.19;100.00
36062;BME280;22123;52.412;20.970;2023-03-26T05:02:30;99293.44;;;6.20;100.00
36062;BME280;22123;52.412;20.970;2023-03-26T05:04:56;99294.13;;;6.22;100.00
36062;BME280;22123;52.412;20.970;2023-03-26T05:07:22;99299.28;;;6.23;100.00
36062;BME280;22123;52.412;20.970;2023-03-26T05:09:47;99298.94;;;6.26;100.00
36062;BME280;22123;52.412;20.970;2023-03-26T05:12:13;99300.63;;;6.28;100.00
36062;BME280;22123;52.412;20.970;2023-03-26T05:14:39;99297.59;;;6.31;100.00
36062;BME280;22123;52.412;20.970;2023-03-26T05:17:04;99302.75;;;6.32;100.00
36062;BME280;22123;52.412;20.970;2023-03-26T05:19:33;99297.06;;;6.35;100.00
36062;BME280;22123;52.412;20.970;2023-03-26T05:21:58;99305.75;;;6.37;100.00
36062;BME280;22123;52.412;20.970;2023-03-26T05:24:24;99296.38;;;6.41;100.00
36062;BME280;22123;52.412;20.970;2023-03-26T05:26:50;99314.06;;;6.51;100.00
36062;BME280;22123;52.412;20.970;2023-03-26T05:29:16;99307.72;;;6.52;100.00
36062;BME280;22123;52.412;20.970;2023-03-26T05:31:42;99305.06;;;6.43;100.00
36062;BME280;22123;52.412;20.970;2023-03-26T05:34:07;99304.44;;;6.33;100.00
36062;BME280;22123;52.412;20.970;2023-03-26T05:36:33;99295.78;;;6.23;100.00
36062;BME280;22123;52.412;20.970;2023-03-26T05:38:59;99297.97;;;6.19;100.00
36062;BME280;22123;52.412;20.970;2023-03-26T05:41:24;99288.78;;;6.14;100.00
36062;BME280;22123;52.412;20.970;2023-03-26T05:43:50;99293.31;;;6.13;100.00
36062;BME280;22123;52.412;20.970;2023-03-26T05:46:16;99290.66;;;6.13;100.00
36062;BME280;22123;52.412;20.970;2023-03-26T05:48:41;99292.16;;;6.16;100.00
36062;BME280;22123;52.412;20.970;2023-03-26T05:51:07;99298.78;;;6.20;100.00
36062;BME280;22123;52.412;20.970;2023-03-26T05:53:33;99287.06;;;6.29;100.00
36062;BME280;22123;52.412;20.970;2023-03-26T05:55:58;99282.19;;;6.33;100.00
36062;BME280;22123;52.412;20.970;2023-03-26T05:58:24;99284.66;;;6.42;100.00
36062;BME280;22123;52.412;20.970;2023-03-26T06:01:04;99286.47;;;6.50;100.00
36062;BME280;22123;52.412;20.970;2023-03-26T06:03:33;99288.63;;;6.55;100.00
36062;BME280;22123;52.412;20.970;2023-03-26T06:05:59;99289.59;;;6.62;100.00
36062;BME280;22123;52.412;20.970;2023-03-26T06:08:24;99294.06;;;6.70;100.00
36062;BME280;22123;52.412;20.970;2023-03-26T06:10:56;99294.53;;;6.73;100.00
36062;BME280;22123;52.412;20.970;2023-03-26T06:13:22;99287.66;;;6.79;100.00
36062;BME280;22123;52.412;20.970;2023-03-26T06:15:47;99295.03;;;6.77;100.00
36062;BME280;22123;52.412;20.970;2023-03-26T06:18:13;99292.53;;;6.75;100.00
36062;BME280;22123;52.412;20.970;2023-03-26T06:20:40;99292.34;;;6.77;100.00
36062;BME280;22123;52.412;20.970;2023-03-26T06:23:05;99292.31;;;6.85;100.00
36062;BME280;22123;52.412;20.970;2023-03-26T06:25:31;99298.31;;;6.87;100.00
36062;BME280;22123;52.412;20.970;2023-03-26T06:27:56;99292.78;;;6.89;100.00
36062;BME280;22123;52.412;20.970;2023-03-26T06:30:22;99301.94;;;6.94;100.00
36062;BME280;22123;52.412;20.970;2023-03-26T06:32:48;99293.56;;;6.97;100.00
36062;BME280;22123;52.412;20.970;2023-03-26T06:35:13;99302.31;;;7.14;100.00
36062;BME280;22123;52.412;20.970;2023-03-26T06:37:39;99301.72;;;7.27;100.00
36062;BME280;22123;52.412;20.970;2023-03-26T06:40:05;99305.22;;;7.28;100.00
36062;BME280;22123;52.412;20.970;2023-03-26T06:42:31;99299.03;;;7.27;100.00
36062;BME280;22123;52.412;20.970;2023-03-26T06:44:56;99296.81;;;7.31;100.00
36062;BME280;22123;52.412;20.970;2023-03-26T06:47:22;99305.72;;;7.31;100.00
36062;BME280;22123;52.412;20.970;2023-03-26T06:49:48;99302.91;;;7.25;100.00
36062;BME280;22123;52.412;20.970;2023-03-26T06:52:13;99308.31;;;7.17;100.00
36062;BME280;22123;52.412;20.970;2023-03-26T06:54:39;99309.81;;;7.19;100.00
36062;BME280;22123;52.412;20.970;2023-03-26T06:57:04;99300.78;;;7.20;100.00
36062;BME280;22123;52.412;20.970;2023-03-26T06:59:30;99298.91;;;7.21;100.00
36062;BME280;22123;52.412;20.970;2023-03-26T07:01:56;99297.78;;;7.15;100.00
36062;BME280;22123;52.412;20.970;2023-03-26T07:04:21;99299.81;;;7.13;100.00
36062;BME280;22123;52.412;20.970;2023-03-26T07:06:47;99295.47;;;7.12;100.00
36062;BME280;22123;52.412;20.970;2023-03-26T07:09:13;99293.16;;;7.09;100.00
36062;BME280;22123;52.412;20.970;2023-03-26T07:11:38;99289.84;;;7.07;100.00
36062;BME280;22123;52.412;20.970;2023-03-26T07:14:04;99292.50;;;7.07;100.00
36062;BME280;22123;52.412;20.970;2023-03-26T07:16:30;99290.44;;;7.17;100.00
36062;BME280;22123;52.412;20.970;2023-03-26T07:18:55;99292.97;;;7.34;100.00
36062;BME280;22123;52.412;20.970;2023-03-26T07:21:21;99292.00;;;7.64;100.00
36062;BME280;22123;52.412;20.970;2023-03-26T07:23:47;99300.22;;;8.01;100.00
36062;BME280;22123;52.412;20.970;2023-03-26T07:28:46;99283.66;;;8.27;100.00
36062;BME280;22123;52.412;20.970;2023-03-26T07:46:08;99293.63;;;7.89;100.00
36062;BME280;22123;52.412;20.970;2023-03-26T07:48:38;99287.16;;;7.83;100.00
36062;BME280;22123;52.412;20.970;2023-03-26T07:51:05;99282.97;;;7.80;100.00
36062;BME280;22123;52.412;20.970;2023-03-26T07:53:30;99280.97;;;7.97;100.00
36062;BME280;22123;52.412;20.970;2023-03-26T07:58:28;99274.56;;;8.28;100.00
36062;BME280;22123;52.412;20.970;2023-03-26T08:01:05;99273.56;;;8.44;100.00
36062;BME280;22123;52.412;20.970;2023-03-26T08:03:46;99273.44;;;8.67;100.00
36062;BME280;22123;52.412;20.970;2023-03-26T08:06:34;99277.69;;;8.77;100.00
36062;BME280;22123;52.412;20.970;2023-03-26T08:09:18;99267.84;;;8.84;100.00
36062;BME280;22123;52.412;20.970;2023-03-26T08:12:00;99275.19;;;8.75;100.00
36062;BME280;22123;52.412;20.970;2023-03-26T08:14:35;99270.13;;;8.65;100.00
36062;BME280;22123;52.412;20.970;2023-03-26T08:19:49;99272.47;;;8.39;100.00
36062;BME280;22123;52.412;20.970;2023-03-26T08:22:20;99268.38;;;8.28;100.00
36062;BME280;22123;52.412;20.970;2023-03-26T08:24:59;99267.75;;;8.26;100.00
36062;BME280;22123;52.412;20.970;2023-03-26T08:32:24;99264.34;;;8.17;100.00
36062;BME280;22123;52.412;20.970;2023-03-26T08:34:50;99264.34;;;8.17;100.00
36062;BME280;22123;52.412;20.970;2023-03-26T08:37:16;99266.38;;;8.15;100.00
36062;BME280;22123;52.412;20.970;2023-03-26T08:39:42;99261.91;;;8.22;100.00
36062;BME280;22123;52.412;20.970;2023-03-26T09:10:43;99248.63;;;9.52;100.00
36062;BME280;22123;52.412;20.970;2023-03-26T09:23:20;99262.28;;;8.85;100.00
36062;BME280;22123;52.412;20.970;2023-03-26T09:33:52;99258.66;;;9.15;100.00
36062;BME280;22123;52.412;20.970;2023-03-26T09:36:20;99260.00;;;9.04;100.00
36062;BME280;22123;52.412;20.970;2023-03-26T09:38:50;99246.13;;;9.00;100.00
36062;BME280;22123;52.412;20.970;2023-03-26T09:41:32;99253.03;;;8.88;100.00
36062;BME280;22123;52.412;20.970;2023-03-26T09:46:38;99248.53;;;9.38;100.00
36062;BME280;22123;52.412;20.970;2023-03-26T09:49:13;99255.16;;;9.43;100.00
36062;BME280;22123;52.412;20.970;2023-03-26T10:01:43;99232.00;;;10.47;100.00
36062;BME280;22123;52.412;20.970;2023-03-26T10:07:04;99235.41;;;10.75;100.00
36062;BME280;22123;52.412;20.970;2023-03-26T10:14:53;99162.72;;;8.80;100.00
36062;BME280;22123;52.412;20.970;2023-03-26T10:17:34;99237.56;;;9.12;100.00
36062;BME280;22123;52.412;20.970;2023-03-26T10:33:13;99206.19;;;14.03;100.00
36062;BME280;22123;52.412;20.970;2023-03-26T10:40:23;99198.19;;;12.25;100.00
36062;BME280;22123;52.412;20.970;2023-03-26T10:43:07;99204.00;;;12.99;100.00
36062;BME280;22123;52.412;20.970;2023-03-26T10:50:51;99190.94;;;13.53;100.00
36062;BME280;22123;52.412;20.970;2023-03-26T10:54:21;99208.53;;;12.41;100.00
36062;BME280;22123;52.412;20.970;2023-03-26T10:56:32;99216.41;;;11.24;100.00
36062;BME280;22123;52.412;20.970;2023-03-26T10:59:00;99208.13;;;11.59;100.00
36062;BME280;22123;52.412;20.970;2023-03-26T11:07:27;99185.25;;;14.17;100.00
36062;BME280;22123;52.412;20.970;2023-03-26T11:10:10;99184.94;;;14.86;100.00
36062;BME280;22123;52.412;20.970;2023-03-26T11:17:41;99185.75;;;14.74;100.00
36062;BME280;22123;52.412;20.970;2023-03-26T11:20:12;99206.66;;;14.00;100.00
36062;BME280;22123;52.412;20.970;2023-03-26T11:32:55;99213.84;;;12.03;100.00
36062;BME280;22123;52.412;20.970;2023-03-26T11:35:25;99215.81;;;12.73;100.00
36062;BME280;22123;52.412;20.970;2023-03-26T11:37:55;99204.44;;;13.53;100.00
36062;BME280;22123;52.412;20.970;2023-03-26T11:43:00;99205.25;;;14.46;100.00
36062;BME280;22123;52.412;20.970;2023-03-26T11:45:28;99202.84;;;13.89;100.00
36062;BME280;22123;52.412;20.970;2023-03-26T11:47:57;99223.41;;;13.21;100.00
36062;BME280;22123;52.412;20.970;2023-03-26T11:50:26;99245.66;;;12.39;100.00
36062;BME280;22123;52.412;20.970;2023-03-26T11:52:57;99242.31;;;11.52;100.00
36062;BME280;22123;52.412;20.970;2023-03-26T11:55:23;99247.25;;;10.33;100.00
36062;BME280;22123;52.412;20.970;2023-03-26T11:57:51;99256.69;;;9.52;100.00
36062;BME280;22123;52.412;20.970;2023-03-26T12:00:18;99247.66;;;9.10;100.00
36062;BME280;22123;52.412;20.970;2023-03-26T12:02:45;99248.38;;;8.97;100.00
36062;BME280;22123;52.412;20.970;2023-03-26T12:05:13;99253.94;;;9.17;100.00
36062;BME280;22123;52.412;20.970;2023-03-26T12:07:58;99247.09;;;9.43;100.00
36062;BME280;22123;52.412;20.970;2023-03-26T12:12:57;99235.91;;;9.67;100.00
36062;BME280;22123;52.412;20.970;2023-03-26T12:15:23;99238.31;;;9.84;100.00
36062;BME280;22123;52.412;20.970;2023-03-26T12:17:50;99235.28;;;10.35;100.00
36062;BME280;22123;52.412;20.970;2023-03-26T12:22:48;99232.34;;;11.45;100.00
36062;BME280;22123;52.412;20.970;2023-03-26T12:25:23;99230.25;;;11.74;100.00
36062;BME280;22123;52.412;20.970;2023-03-26T12:27:51;99226.91;;;12.06;100.00
36062;BME280;22123;52.412;20.970;2023-03-26T12:32:47;99224.22;;;11.86;100.00
36062;BME280;22123;52.412;20.970;2023-03-26T12:35:18;99223.63;;;11.70;100.00
36062;BME280;22123;52.412;20.970;2023-03-26T12:37:47;99213.50;;;11.59;100.00
36062;BME280;22123;52.412;20.970;2023-03-26T12:42:51;99211.41;;;11.68;100.00
36062;BME280;22123;52.412;20.970;2023-03-26T12:45:20;99202.63;;;11.99;100.00
36062;BME280;22123;52.412;20.970;2023-03-26T12:47:46;99194.06;;;12.67;100.00
36062;BME280;22123;52.412;20.970;2023-03-26T12:50:13;99205.28;;;13.21;100.00
36062;BME280;22123;52.412;20.970;2023-03-26T12:57:36;99204.41;;;13.34;100.00
36062;BME280;22123;52.412;20.970;2023-03-26T13:15:51;99197.44;;;12.49;100.00
36062;BME280;22123;52.412;20.970;2023-03-26T13:20:54;99206.09;;;12.65;100.00
36062;BME280;22123;52.412;20.970;2023-03-26T13:26:03;99197.09;;;12.39;100.00
36062;BME280;22123;52.412;20.970;2023-03-26T13:31:04;99194.53;;;12.12;100.00
36062;BME280;22123;52.412;20.970;2023-03-26T13:33:41;99193.28;;;12.08;100.00
36062;BME280;22123;52.412;20.970;2023-03-26T13:46:25;99189.31;;;12.17;100.00
36062;BME280;22123;52.412;20.970;2023-03-26T13:49:03;99198.19;;;12.31;100.00
36062;BME280;22123;52.412;20.970;2023-03-26T13:51:49;99195.34;;;12.13;100.00
36062;BME280;22123;52.412;20.970;2023-03-26T13:56:55;99127.13;;;11.99;100.00
36062;BME280;22123;52.412;20.970;2023-03-26T13:59:28;99198.09;;;12.51;100.00
36062;BME280;22123;52.412;20.970;2023-03-26T14:02:03;99207.06;;;12.39;100.00
36062;BME280;22123;52.412;20.970;2023-03-26T14:04:35;99213.41;;;12.12;100.00
36062;BME280;22123;52.412;20.970;2023-03-26T14:14:23;99215.97;;;11.80;100.00
36062;BME280;22123;52.412;20.970;2023-03-26T14:16:56;99205.69;;;12.16;100.00
36062;BME280;22123;52.412;20.970;2023-03-26T14:22:18;99210.16;;;11.70;100.00
36062;BME280;22123;52.412;20.970;2023-03-26T14:27:47;99215.13;;;11.60;100.00
36062;BME280;22123;52.412;20.970;2023-03-26T14:35:32;99201.09;;;12.23;100.00
36062;BME280;22123;52.412;20.970;2023-03-26T14:48:46;99201.72;;;11.20;100.00
36062;BME280;22123;52.412;20.970;2023-03-26T14:53:40;99211.03;;;11.30;100.00
36062;BME280;22123;52.412;20.970;2023-03-26T14:56:29;99197.09;;;11.80;100.00
36062;BME280;22123;52.412;20.970;2023-03-26T15:04:41;99200.63;;;11.54;100.00
36062;BME280;22123;52.412;20.970;2023-03-26T16:04:00;99240.72;;;10.14;100.00
36062;BME280;22123;52.412;20.970;2023-03-26T16:06:32;99243.41;;;10.07;100.00
36062;BME280;22123;52.412;20.970;2023-03-26T16:11:51;99253.50;;;9.98;100.00
36062;BME280;22123;52.412;20.970;2023-03-26T16:14:37;99241.69;;;9.99;100.00
36062;BME280;22123;52.412;20.970;2023-03-26T16:17:07;99237.16;;;10.00;100.00
36062;BME280;22123;52.412;20.970;2023-03-26T16:27:39;99245.38;;;9.91;100.00
36062;BME280;22123;52.412;20.970;2023-03-26T16:30:07;99260.59;;;9.78;100.00
36062;BME280;22123;52.412;20.970;2023-03-26T16:32:44;99254.69;;;9.61;100.00
36062;BME280;22123;52.412;20.970;2023-03-26T16:37:39;99264.81;;;9.37;100.00
36062;BME280;22123;52.412;20.970;2023-03-26T16:50:32;99268.66;;;8.84;100.00
36062;BME280;22123;52.412;20.970;2023-03-26T16:53:31;99272.50;;;8.75;100.00
36062;BME280;22123;52.412;20.970;2023-03-26T16:55:53;99274.09;;;8.69;100.00
36062;BME280;22123;52.412;20.970;2023-03-26T17:01:05;99272.38;;;8.47;100.00
36062;BME280;22123;52.412;20.970;2023-03-26T17:06:02;99278.75;;;8.31;100.00
36062;BME280;22123;52.412;20.970;2023-03-26T17:13:47;99289.56;;;8.08;100.00
36062;BME280;22123;52.412;20.970;2023-03-26T17:23:42;99288.63;;;7.86;100.00
36062;BME280;22123;52.412;20.970;2023-03-26T17:26:21;99301.56;;;7.82;100.00
36062;BME280;22123;52.412;20.970;2023-03-26T17:29:00;99299.44;;;7.77;100.00
36062;BME280;22123;52.412;20.970;2023-03-26T17:31:41;99297.03;;;7.68;100.00
36062;BME280;22123;52.412;20.970;2023-03-26T17:36:55;99309.25;;;7.47;100.00
36062;BME280;22123;52.412;20.970;2023-03-26T17:44:51;99300.69;;;7.05;100.00
36062;BME280;22123;52.412;20.970;2023-03-26T17:47:25;99296.78;;;6.93;100.00
36062;BME280;22123;52.412;20.970;2023-03-26T17:49:54;99300.91;;;6.72;100.00
36062;BME280;22123;52.412;20.970;2023-03-26T17:54:57;99310.09;;;6.38;100.00
36062;BME280;22123;52.412;20.970;2023-03-26T17:57:25;99309.97;;;6.23;100.00
36062;BME280;22123;52.412;20.970;2023-03-26T17:59:54;99315.22;;;6.08;100.00
36062;BME280;22123;52.412;20.970;2023-03-26T18:02:21;99311.53;;;5.93;100.00
36062;BME280;22123;52.412;20.970;2023-03-26T18:04:52;99309.06;;;5.75;100.00
36062;BME280;22123;52.412;20.970;2023-03-26T18:17:42;99319.91;;;5.08;100.00
36062;BME280;22123;52.412;20.970;2023-03-26T18:20:17;99307.06;;;4.95;100.00
36062;BME280;22123;52.412;20.970;2023-03-26T18:22:44;99301.03;;;4.84;100.00
36062;BME280;22123;52.412;20.970;2023-03-26T18:25:13;99300.53;;;4.81;100.00
36062;BME280;22123;52.412;20.970;2023-03-26T18:27:45;99301.41;;;4.90;100.00
36062;BME280;22123;52.412;20.970;2023-03-26T18:30:15;99302.25;;;4.98;100.00
36062;BME280;22123;52.412;20.970;2023-03-26T18:32:46;99303.09;;;5.07;100.00
36062;BME280;22123;52.412;20.970;2023-03-26T18:35:18;99302.41;;;5.13;100.00
36062;BME280;22123;52.412;20.970;2023-03-26T18:37:44;99298.25;;;5.19;100.00
36062;BME280;22123;52.412;20.970;2023-03-26T18:40:15;99295.59;;;5.19;100.00
36062;BME280;22123;52.412;20.970;2023-03-26T18:42:44;99300.22;;;5.17;100.00
36062;BME280;22123;52.412;20.970;2023-03-26T18:45:31;99296.38;;;5.11;100.00
36062;BME280;22123;52.412;20.970;2023-03-26T18:47:58;99293.25;;;5.08;100.00
36062;BME280;22123;52.412;20.970;2023-03-26T18:50:26;99294.22;;;5.07;100.00
36062;BME280;22123;52.412;20.970;2023-03-26T18:52:54;99291.91;;;5.03;100.00
36062;BME280;22123;52.412;20.970;2023-03-26T18:55:21;99296.41;;;5.03;100.00
36062;BME280;22123;52.412;20.970;2023-03-26T18:57:48;99292.41;;;5.07;100.00
36062;BME280;22123;52.412;20.970;2023-03-26T19:00:21;99288.09;;;5.14;100.00